sensor_id;sensor_type;location;lat;lon;timestamp;pressure;altitude;pressure_sealevel;temperature;humidity
37832;BME280;23671;38.090;-122.570;2022-10-19T00:01:49;101586.63;;;24.58;44.88
37832;BME280;23671;38.090;-122.570;2022-10-19T00:04:16;101580.03;;;24.46;46.48
37832;BME280;23671;38.090;-122.570;2022-10-19T00:06:44;101584.34;;;24.41;47.62
37832;BME280;23671;38.090;-122.570;2022-10-19T00:09:17;101579.69;;;24.34;48.33
37832;BME280;23671;38.090;-122.570;2022-10-19T00:11:46;101570.69;;;24.27;48.99
37832;BME280;23671;38.090;-122.570;2022-10-19T00:14:17;101577.50;;;24.23;49.43
37832;BME280;23671;38.090;-122.570;2022-10-19T00:16:47;101573.50;;;24.19;50.05
37832;BME280;23671;38.090;-122.570;2022-10-19T00:19:17;101572.19;;;24.15;50.34
37832;BME280;23671;38.090;-122.570;2022-10-19T00:21:45;101575.25;;;24.12;50.60
37832;BME280;23671;38.090;-122.570;2022-10-19T00:24:12;101569.88;;;24.12;50.88
37832;BME280;23671;38.090;-122.570;2022-10-19T00:26:39;101563.00;;;24.10;51.12
37832;BME280;23671;38.090;-122.570;2022-10-19T00:29:06;101567.94;;;24.06;51.02
37832;BME280;23671;38.090;-122.570;2022-10-19T00:31:34;101564.28;;;23.99;51.21
37832;BME280;23671;38.090;-122.570;2022-10-19T00:34:01;101570.41;;;23.93;51.64
37832;BME280;23671;38.090;-122.570;2022-10-19T00:36:31;101569.13;;;23.89;51.88
37832;BME280;23671;38.090;-122.570;2022-10-19T00:38:59;101566.16;;;23.84;51.77
37832;BME280;23671;38.090;-122.570;2022-10-19T00:41:29;101572.94;;;23.80;51.96
37832;BME280;23671;38.090;-122.570;2022-10-19T00:44:00;101574.97;;;23.78;52.25
37832;BME280;23671;38.090;-122.570;2022-10-19T00:46:30;101568.94;;;23.76;52.20
37832;BME280;23671;38.090;-122.570;2022-10-19T00:51:31;101576.38;;;23.74;52.28
37832;BME280;23671;38.090;-122.570;2022-10-19T00:54:02;101568.38;;;23.66;52.52
37832;BME280;23671;38.090;-122.570;2022-10-19T00:56:30;101574.25;;;23.70;52.43
37832;BME280;23671;38.090;-122.570;2022-10-19T00:58:57;101575.47;;;23.67;52.33
37832;BME280;23671;38.090;-122.570;2022-10-19T01:01:25;101571.06;;;23.66;52.45
37832;BME280;23671;38.090;-122.570;2022-10-19T01:03:53;101572.31;;;23.64;52.45
37832;BME280;23671;38.090;-122.570;2022-10-19T01:06:20;101573.56;;;23.53;52.78
37832;BME280;23671;38.090;-122.570;2022-10-19T01:08:48;101574.22;;;23.55;52.79
37832;BME280;23671;38.090;-122.570;2022-10-19T01:34:00;101582.63;;;23.23;52.65
37832;BME280;23671;38.090;-122.570;2022-10-19T01:42:07;101571.06;;;23.14;52.33
37832;BME280;23671;38.090;-122.570;2022-10-19T01:47:21;101573.66;;;23.08;52.70
37832;BME280;23671;38.090;-122.570;2022-10-19T01:50:05;101575.03;;;23.04;52.34
37832;BME280;23671;38.090;-122.570;2022-10-19T01:52:36;101574.38;;;23.02;52.47
37832;BME280;23671;38.090;-122.570;2022-10-19T01:55:08;101577.41;;;22.99;52.13
37832;BME280;23671;38.090;-122.570;2022-10-19T01:57:39;101583.84;;;22.98;51.98
37832;BME280;23671;38.090;-122.570;2022-10-19T02:00:10;101575.28;;;22.94;51.92
37832;BME280;23671;38.090;-122.570;2022-10-19T02:02:41;101583.25;;;22.88;51.79
37832;BME280;23671;38.090;-122.570;2022-10-19T02:05:10;101583.78;;;22.83;51.85
37832;BME280;23671;38.090;-122.570;2022-10-19T02:07:40;101578.94;;;22.79;51.75
37832;BME280;23671;38.090;-122.570;2022-10-19T02:10:09;101590.91;;;22.76;51.52
37832;BME280;23671;38.090;-122.570;2022-10-19T02:12:37;101581.88;;;22.69;51.63
37832;BME280;23671;38.090;-122.570;2022-10-19T02:15:12;101590.19;;;22.60;51.71
37832;BME280;23671;38.090;-122.570;2022-10-19T02:17:45;101587.13;;;22.54;51.81
37832;BME280;23671;38.090;-122.570;2022-10-19T02:20:14;101591.53;;;22.55;51.84
37832;BME280;23671;38.090;-122.570;2022-10-19T02:22:41;101596.91;;;22.55;51.65
37832;BME280;23671;38.090;-122.570;2022-10-19T02:25:09;101596.59;;;22.50;51.50
37832;BME280;23671;38.090;-122.570;2022-10-19T02:27:39;101600.00;;;22.44;51.88
37832;BME280;23671;38.090;-122.570;2022-10-19T02:30:15;101599.34;;;22.42;51.55
37832;BME280;23671;38.090;-122.570;2022-10-19T02:32:43;101606.25;;;22.37;51.65
37832;BME280;23671;38.090;-122.570;2022-10-19T02:35:12;101609.47;;;22.32;51.48
37832;BME280;23671;38.090;-122.570;2022-10-19T02:37:40;101614.72;;;22.26;51.67
37832;BME280;23671;38.090;-122.570;2022-10-19T02:40:08;101615.91;;;22.23;51.78
37832;BME280;23671;38.090;-122.570;2022-10-19T02:42:40;101620.66;;;22.21;51.68
37832;BME280;23671;38.090;-122.570;2022-10-19T02:45:26;101626.34;;;22.18;51.67
37832;BME280;23671;38.090;-122.570;2022-10-19T02:48:01;101632.25;;;22.14;51.33
37832;BME280;23671;38.090;-122.570;2022-10-19T02:50:31;101629.25;;;22.09;51.25
37832;BME280;23671;38.090;-122.570;2022-10-19T02:52:58;101632.13;;;22.07;50.99
37832;BME280;23671;38.090;-122.570;2022-10-19T02:55:26;101631.66;;;21.96;50.89
37832;BME280;23671;38.090;-122.570;2022-10-19T02:58:13;101631.66;;;21.96;51.19
37832;BME280;23671;38.090;-122.570;2022-10-19T03:00:40;101637.53;;;21.91;51.04
37832;BME280;23671;38.090;-122.570;2022-10-19T03:03:08;101644.94;;;21.89;51.03
37832;BME280;23671;38.090;-122.570;2022-10-19T03:05:35;101642.94;;;21.83;50.99
37832;BME280;23671;38.090;-122.570;2022-10-19T03:08:02;101637.72;;;21.73;51.11
37832;BME280;23671;38.090;-122.570;2022-10-19T03:10:29;101638.06;;;21.70;50.78
37832;BME280;23671;38.090;-122.570;2022-10-19T03:12:58;101644.31;;;21.63;50.60
37832;BME280;23671;38.090;-122.570;2022-10-19T03:15:25;101649.84;;;21.61;50.86
37832;BME280;23671;38.090;-122.570;2022-10-19T03:17:55;101656.06;;;21.54;51.07
37832;BME280;23671;38.090;-122.570;2022-10-19T03:20:22;101652.72;;;21.52;50.90
37832;BME280;23671;38.090;-122.570;2022-10-19T03:22:49;101659.75;;;21.45;50.62
37832;BME280;23671;38.090;-122.570;2022-10-19T03:25:16;101658.59;;;21.39;50.70
37832;BME280;23671;38.090;-122.570;2022-10-19T03:27:43;101665.31;;;21.35;50.48
37832;BME280;23671;38.090;-122.570;2022-10-19T03:30:11;101669.50;;;21.30;50.98
37832;BME280;23671;38.090;-122.570;2022-10-19T03:32:38;101674.88;;;21.22;50.64
37832;BME280;23671;38.090;-122.570;2022-10-19T03:35:05;101676.72;;;21.21;50.62
37832;BME280;23671;38.090;-122.570;2022-10-19T03:37:32;101675.72;;;21.14;50.55
37832;BME280;23671;38.090;-122.570;2022-10-19T03:39:59;101677.03;;;21.10;50.63
37832;BME280;23671;38.090;-122.570;2022-10-19T03:42:26;101676.22;;;21.02;50.64
37832;BME280;23671;38.090;-122.570;2022-10-19T03:44:53;101676.50;;;20.99;50.93
37832;BME280;23671;38.090;-122.570;2022-10-19T03:47:20;101678.00;;;20.93;50.87
37832;BME280;23671;38.090;-122.570;2022-10-19T03:49:47;101685.38;;;20.91;50.70
37832;BME280;23671;38.090;-122.570;2022-10-19T03:52:17;101681.34;;;20.87;50.54
37832;BME280;23671;38.090;-122.570;2022-10-19T03:54:44;101680.34;;;20.88;50.75
37832;BME280;23671;38.090;-122.570;2022-10-19T03:57:12;101678.63;;;20.79;50.61
37832;BME280;23671;38.090;-122.570;2022-10-19T03:59:39;101687.03;;;20.76;50.79
37832;BME280;23671;38.090;-122.570;2022-10-19T04:02:06;101682.97;;;20.72;50.54
37832;BME280;23671;38.090;-122.570;2022-10-19T04:04:33;101688.53;;;20.70;50.66
37832;BME280;23671;38.090;-122.570;2022-10-19T04:07:00;101689.47;;;20.61;50.74
37832;BME280;23671;38.090;-122.570;2022-10-19T04:09:27;101689.47;;;20.61;50.71
37832;BME280;23671;38.090;-122.570;2022-10-19T04:11:54;101690.47;;;20.52;50.86
37832;BME280;23671;38.090;-122.570;2022-10-19T04:14:21;101690.78;;;20.49;50.83
37832;BME280;23671;38.090;-122.570;2022-10-19T04:16:48;101690.75;;;20.41;50.90
37832;BME280;23671;38.090;-122.570;2022-10-19T04:19:15;101685.88;;;20.37;50.95
37832;BME280;23671;38.090;-122.570;2022-10-19T04:21:43;101692.72;;;20.31;51.01
37832;BME280;23671;38.090;-122.570;2022-10-19T04:24:13;101697.03;;;20.24;51.03
37832;BME280;23671;38.090;-122.570;2022-10-19T04:26:43;101691.84;;;20.23;51.03
37832;BME280;23671;38.090;-122.570;2022-10-19T04:29:10;101692.44;;;20.17;51.02
37832;BME280;23671;38.090;-122.570;2022-10-19T04:31:38;101691.78;;;20.15;51.18
37832;BME280;23671;38.090;-122.570;2022-10-19T04:34:06;101687.03;;;20.09;51.26
37832;BME280;23671;38.090;-122.570;2022-10-19T04:36:34;101698.91;;;20.06;51.31
37832;BME280;23671;38.090;-122.570;2022-10-19T04:39:01;101692.88;;;20.04;51.21
37832;BME280;23671;38.090;-122.570;2022-10-19T04:41:28;101686.63;;;19.96;51.24
37832;BME280;23671;38.090;-122.570;2022-10-19T04:43:57;101698.50;;;19.93;51.15
37832;BME280;23671;38.090;-122.570;2022-10-19T04:46:24;101692.63;;;19.89;51.35
37832;BME280;23671;38.090;-122.570;2022-10-19T04:48:52;101692.09;;;19.86;51.32
37832;BME280;23671;38.090;-122.570;2022-10-19T04:51:19;101692.72;;;19.80;51.40
37832;BME280;23671;38.090;-122.570;2022-10-19T04:53:47;101691.03;;;19.79;51.41
37832;BME280;23671;38.090;-122.570;2022-10-19T04:56:19;101693.72;;;19.79;51.49
37832;BME280;23671;38.090;-122.570;2022-10-19T04:58:47;101695.34;;;19.72;51.24
37832;BME280;23671;38.090;-122.570;2022-10-19T05:01:16;101693.81;;;19.69;51.38
37832;BME280;23671;38.090;-122.570;2022-10-19T05:03:44;101698.66;;;19.66;51.28
37832;BME280;23671;38.090;-122.570;2022-10-19T05:06:11;101701.31;;;19.66;51.18
37832;BME280;23671;38.090;-122.570;2022-10-19T05:08:39;101707.47;;;19.58;51.24
37832;BME280;23671;38.090;-122.570;2022-10-19T05:11:12;101699.59;;;19.57;51.29
37832;BME280;23671;38.090;-122.570;2022-10-19T05:13:40;101703.50;;;19.45;51.27
37832;BME280;23671;38.090;-122.570;2022-10-19T05:16:12;101704.81;;;19.41;51.34
37832;BME280;23671;38.090;-122.570;2022-10-19T05:18:39;101702.56;;;19.36;51.33
37832;BME280;23671;38.090;-122.570;2022-10-19T05:21:12;101700.63;;;19.29;51.38
37832;BME280;23671;38.090;-122.570;2022-10-19T05:23:40;101705.00;;;19.30;51.81
37832;BME280;23671;38.090;-122.570;2022-10-19T05:26:15;101713.94;;;19.21;51.53
37832;BME280;23671;38.090;-122.570;2022-10-19T05:28:49;101711.91;;;19.15;51.85
37832;BME280;23671;38.090;-122.570;2022-10-19T05:31:19;101719.16;;;19.04;51.66
37832;BME280;23671;38.090;-122.570;2022-10-19T05:33:45;101721.28;;;19.01;51.94
37832;BME280;23671;38.090;-122.570;2022-10-19T05:36:18;101723.56;;;18.96;51.84
37832;BME280;23671;38.090;-122.570;2022-10-19T05:38:47;101720.78;;;18.88;52.12
37832;BME280;23671;38.090;-122.570;2022-10-19T05:41:14;101724.75;;;18.84;52.11
37832;BME280;23671;38.090;-122.570;2022-10-19T05:43:43;101720.84;;;18.78;52.16
37832;BME280;23671;38.090;-122.570;2022-10-19T05:46:12;101722.72;;;18.78;52.26
37832;BME280;23671;38.090;-122.570;2022-10-19T05:48:40;101716.09;;;18.72;52.24
37832;BME280;23671;38.090;-122.570;2022-10-19T05:51:10;101708.81;;;18.65;52.38
37832;BME280;23671;38.090;-122.570;2022-10-19T05:53:37;101711.09;;;18.60;52.35
37832;BME280;23671;38.090;-122.570;2022-10-19T05:56:06;101717.59;;;18.57;52.50
37832;BME280;23671;38.090;-122.570;2022-10-19T05:58:34;101716.91;;;18.55;52.23
37832;BME280;23671;38.090;-122.570;2022-10-19T06:01:01;101721.69;;;18.52;52.56
37832;BME280;23671;38.090;-122.570;2022-10-19T06:03:29;101720.47;;;18.46;52.55
37832;BME280;23671;38.090;-122.570;2022-10-19T06:05:57;101720.78;;;18.43;52.56
37832;BME280;23671;38.090;-122.570;2022-10-19T06:08:24;101714.00;;;18.39;52.50
37832;BME280;23671;38.090;-122.570;2022-10-19T06:10:51;101716.25;;;18.34;52.59
37832;BME280;23671;38.090;-122.570;2022-10-19T06:13:19;101714.84;;;18.30;52.80
37832;BME280;23671;38.090;-122.570;2022-10-19T06:15:50;101708.97;;;18.27;52.80
37832;BME280;23671;38.090;-122.570;2022-10-19T06:18:17;101706.75;;;18.22;52.76
37832;BME280;23671;38.090;-122.570;2022-10-19T06:20:44;101709.56;;;18.21;52.76
37832;BME280;23671;38.090;-122.570;2022-10-19T06:23:11;101710.81;;;18.16;52.93
37832;BME280;23671;38.090;-122.570;2022-10-19T06:25:38;101713.81;;;18.13;52.82
37832;BME280;23671;38.090;-122.570;2022-10-19T06:28:06;101707.91;;;18.10;53.02
37832;BME280;23671;38.090;-122.570;2022-10-19T06:30:33;101711.88;;;18.06;52.89
37832;BME280;23671;38.090;-122.570;2022-10-19T06:33:00;101705.97;;;18.02;53.01
37832;BME280;23671;38.090;-122.570;2022-10-19T06:35:27;101706.25;;;17.99;52.94
37832;BME280;23671;38.090;-122.570;2022-10-19T06:37:56;101706.41;;;17.98;52.91
37832;BME280;23671;38.090;-122.570;2022-10-19T06:40:23;101706.97;;;17.92;53.07
37832;BME280;23671;38.090;-122.570;2022-10-19T06:42:50;101701.06;;;17.88;53.01
37832;BME280;23671;38.090;-122.570;2022-10-19T06:45:18;101704.88;;;17.86;53.04
37832;BME280;23671;38.090;-122.570;2022-10-19T06:47:45;101698.13;;;17.82;53.22
37832;BME280;23671;38.090;-122.570;2022-10-19T06:50:12;101695.06;;;17.77;53.07
37832;BME280;23671;38.090;-122.570;2022-10-19T06:52:39;101695.91;;;17.77;53.28
37832;BME280;23671;38.090;-122.570;2022-10-19T06:55:07;101697.88;;;17.75;53.29
37832;BME280;23671;38.090;-122.570;2022-10-19T06:57:34;101691.41;;;17.68;53.33
37832;BME280;23671;38.090;-122.570;2022-10-19T07:00:01;101700.41;;;17.67;53.29
37832;BME280;23671;38.090;-122.570;2022-10-19T07:02:28;101698.03;;;17.64;53.37
37832;BME280;23671;38.090;-122.570;2022-10-19T07:04:55;101695.63;;;17.61;53.43
37832;BME280;23671;38.090;-122.570;2022-10-19T07:07:22;101691.56;;;17.57;53.47
37832;BME280;23671;38.090;-122.570;2022-10-19T07:09:49;101687.38;;;17.55;53.37
37832;BME280;23671;38.090;-122.570;2022-10-19T07:12:17;101694.94;;;17.50;53.52
37832;BME280;23671;38.090;-122.570;2022-10-19T07:14:44;101686.34;;;17.46;53.26
37832;BME280;23671;38.090;-122.570;2022-10-19T07:17:11;101695.34;;;17.45;53.49
37832;BME280;23671;38.090;-122.570;2022-10-19T07:19:38;101688.63;;;17.41;53.53
37832;BME280;23671;38.090;-122.570;2022-10-19T07:22:05;101690.59;;;17.39;53.26
37832;BME280;23671;38.090;-122.570;2022-10-19T07:24:32;101685.50;;;17.36;53.59
37832;BME280;23671;38.090;-122.570;2022-10-19T07:26:59;101690.16;;;17.34;53.60
37832;BME280;23671;38.090;-122.570;2022-10-19T07:29:26;101690.59;;;17.30;53.46
37832;BME280;23671;38.090;-122.570;2022-10-19T07:31:53;101688.19;;;17.26;53.51
37832;BME280;23671;38.090;-122.570;2022-10-19T07:34:20;101695.34;;;17.26;53.42
37832;BME280;23671;38.090;-122.570;2022-10-19T07:36:47;101694.78;;;17.22;53.62
37832;BME280;23671;38.090;-122.570;2022-10-19T07:39:15;101695.09;;;17.19;53.66
37832;BME280;23671;38.090;-122.570;2022-10-19T07:41:43;101692.66;;;17.16;53.72
37832;BME280;23671;38.090;-122.570;2022-10-19T07:44:10;101695.63;;;17.13;53.78
37832;BME280;23671;38.090;-122.570;2022-10-19T07:46:38;101699.41;;;17.11;53.60
37832;BME280;23671;38.090;-122.570;2022-10-19T07:49:08;101692.25;;;17.11;53.81
37832;BME280;23671;38.090;-122.570;2022-10-19T07:51:36;101697.84;;;17.08;53.50
37832;BME280;23671;38.090;-122.570;2022-10-19T07:54:04;101693.81;;;17.04;53.80
37832;BME280;23671;38.090;-122.570;2022-10-19T07:56:31;101695.78;;;17.02;53.82
37832;BME280;23671;38.090;-122.570;2022-10-19T07:58:59;101693.09;;;17.02;53.73
37832;BME280;23671;38.090;-122.570;2022-10-19T08:01:33;101689.13;;;16.97;53.91
37832;BME280;23671;38.090;-122.570;2022-10-19T08:04:01;101693.91;;;16.93;53.74
37832;BME280;23671;38.090;-122.570;2022-10-19T08:06:28;101688.03;;;16.90;53.78
37832;BME280;23671;38.090;-122.570;2022-10-19T08:08:55;101693.50;;;16.88;53.73
37832;BME280;23671;38.090;-122.570;2022-10-19T08:11:28;101693.09;;;16.83;54.03
37832;BME280;23671;38.090;-122.570;2022-10-19T08:13:55;101684.38;;;16.81;53.80
37832;BME280;23671;38.090;-122.570;2022-10-19T08:18:58;101686.34;;;16.79;53.78
37832;BME280;23671;38.090;-122.570;2022-10-19T08:21:26;101690.97;;;16.77;54.03
37832;BME280;23671;38.090;-122.570;2022-10-19T08:23:54;101693.03;;;16.74;53.87
37832;BME280;23671;38.090;-122.570;2022-10-19T08:26:21;101688.84;;;16.71;54.09
37832;BME280;23671;38.090;-122.570;2022-10-19T08:28:48;101683.75;;;16.68;53.89
37832;BME280;23671;38.090;-122.570;2022-10-19T08:31:22;101683.91;;;16.67;53.88
37832;BME280;23671;38.090;-122.570;2022-10-19T08:33:50;101679.81;;;16.63;54.19
37832;BME280;23671;38.090;-122.570;2022-10-19T08:36:18;101684.03;;;16.65;54.09
37832;BME280;23671;38.090;-122.570;2022-10-19T08:38:48;101680.97;;;16.60;53.82
37832;BME280;23671;38.090;-122.570;2022-10-19T08:42:22;101676.97;;;16.55;54.20
37832;BME280;23671;38.090;-122.570;2022-10-19T08:49:59;101682.25;;;16.45;54.20
37832;BME280;23671;38.090;-122.570;2022-10-19T08:52:33;101677.91;;;16.44;54.06
37832;BME280;23671;38.090;-122.570;2022-10-19T08:55:07;101687.03;;;16.42;53.95
37832;BME280;23671;38.090;-122.570;2022-10-19T08:57:51;101681.84;;;16.40;54.11
37832;BME280;23671;38.090;-122.570;2022-10-19T09:06:11;101689.78;;;16.30;54.15
37832;BME280;23671;38.090;-122.570;2022-10-19T09:08:45;101686.41;;;16.28;54.39
37832;BME280;23671;38.090;-122.570;2022-10-19T09:11:13;101683.91;;;16.27;54.46
37832;BME280;23671;38.090;-122.570;2022-10-19T09:13:43;101688.50;;;16.25;54.47
37832;BME280;23671;38.090;-122.570;2022-10-19T09:16:16;101692.28;;;16.22;54.39
37832;BME280;23671;38.090;-122.570;2022-10-19T09:18:45;101696.91;;;16.20;54.37
37832;BME280;23671;38.090;-122.570;2022-10-19T09:21:41;101695.22;;;16.19;54.51
37832;BME280;23671;38.090;-122.570;2022-10-19T09:24:29;101694.63;;;16.16;54.22
37832;BME280;23671;38.090;-122.570;2022-10-19T09:26:57;101690.28;;;16.15;54.21
37832;BME280;23671;38.090;-122.570;2022-10-19T09:31:59;101694.19;;;16.11;54.35
37832;BME280;23671;38.090;-122.570;2022-10-19T09:34:47;101696.13;;;16.09;54.46
37832;BME280;23671;38.090;-122.570;2022-10-19T09:37:17;101688.53;;;16.04;54.24
37832;BME280;23671;38.090;-122.570;2022-10-19T09:39:45;101692.19;;;16.03;54.37
37832;BME280;23671;38.090;-122.570;2022-10-19T09:42:32;101688.81;;;16.01;54.39
37832;BME280;23671;38.090;-122.570;2022-10-19T09:45:05;101689.91;;;15.99;54.77
37832;BME280;23671;38.090;-122.570;2022-10-19T09:47:39;101698.19;;;15.96;54.50
37832;BME280;23671;38.090;-122.570;2022-10-19T09:52:46;101687.19;;;15.89;54.76
37832;BME280;23671;38.090;-122.570;2022-10-19T09:57:48;101689.28;;;15.86;54.54
37832;BME280;23671;38.090;-122.570;2022-10-19T10:00:21;101699.38;;;15.82;54.65
37832;BME280;23671;38.090;-122.570;2022-10-19T10:02:53;101693.19;;;15.82;54.77
37832;BME280;23671;38.090;-122.570;2022-10-19T10:05:30;101694.31;;;15.79;54.85
37832;BME280;23671;38.090;-122.570;2022-10-19T10:07:58;101696.13;;;15.79;54.46
37832;BME280;23671;38.090;-122.570;2022-10-19T10:10:29;101691.91;;;15.76;54.77
37832;BME280;23671;38.090;-122.570;2022-10-19T10:13:00;101697.34;;;15.75;54.63
37832;BME280;23671;38.090;-122.570;2022-10-19T10:16:04;101693.72;;;15.76;54.73
37832;BME280;23671;38.090;-122.570;2022-10-19T10:18:24;101695.94;;;15.71;54.91
37832;BME280;23671;38.090;-122.570;2022-10-19T10:21:03;101699.53;;;15.70;54.67
37832;BME280;23671;38.090;-122.570;2022-10-19T10:23:32;101698.88;;;15.68;54.82
37832;BME280;23671;38.090;-122.570;2022-10-19T10:26:04;101699.97;;;15.65;54.79
37832;BME280;23671;38.090;-122.570;2022-10-19T10:28:47;101696.72;;;15.62;54.77
37832;BME280;23671;38.090;-122.570;2022-10-19T10:31:17;101701.31;;;15.60;54.69
37832;BME280;23671;38.090;-122.570;2022-10-19T10:33:56;101698.66;;;15.60;54.83
37832;BME280;23671;38.090;-122.570;2022-10-19T10:36:28;101696.09;;;15.58;54.99
37832;BME280;23671;38.090;-122.570;2022-10-19T10:39:02;101703.50;;;15.55;55.02
37832;BME280;23671;38.090;-122.570;2022-10-19T10:41:38;101691.19;;;15.54;54.85
37832;BME280;23671;38.090;-122.570;2022-10-19T10:44:41;101697.47;;;15.53;54.66
37832;BME280;23671;38.090;-122.570;2022-10-19T10:47:05;101693.00;;;15.53;54.74
37832;BME280;23671;38.090;-122.570;2022-10-19T10:49:40;101698.59;;;15.50;54.91
37832;BME280;23671;38.090;-122.570;2022-10-19T10:52:14;101691.69;;;15.48;55.00
37832;BME280;23671;38.090;-122.570;2022-10-19T10:57:39;101682.00;;;15.46;54.79
37832;BME280;23671;38.090;-122.570;2022-10-19T11:05:35;101679.97;;;15.39;55.04
37832;BME280;23671;38.090;-122.570;2022-10-19T11:08:27;101682.19;;;15.34;54.92
37832;BME280;23671;38.090;-122.570;2022-10-19T11:11:13;101679.16;;;15.38;54.74
37832;BME280;23671;38.090;-122.570;2022-10-19T11:16:20;101682.31;;;15.32;54.83
37832;BME280;23671;38.090;-122.570;2022-10-19T11:19:05;101672.63;;;15.31;54.87
37832;BME280;23671;38.090;-122.570;2022-10-19T11:21:47;101677.38;;;15.28;54.91
37832;BME280;23671;38.090;-122.570;2022-10-19T11:30:23;101676.56;;;15.16;55.33
37832;BME280;23671;38.090;-122.570;2022-10-19T11:32:58;101683.84;;;15.14;55.27
37832;BME280;23671;38.090;-122.570;2022-10-19T11:49:18;101679.50;;;15.13;54.85
37832;BME280;23671;38.090;-122.570;2022-10-19T11:57:23;101682.16;;;15.13;54.79
37832;BME280;23671;38.090;-122.570;2022-10-19T12:00:08;101680.94;;;15.17;54.66
37832;BME280;23671;38.090;-122.570;2022-10-19T12:03:00;101689.78;;;15.07;54.87
37832;BME280;23671;38.090;-122.570;2022-10-19T12:14:38;101695.88;;;14.98;54.91
37832;BME280;23671;38.090;-122.570;2022-10-19T12:17:14;101692.00;;;14.91;55.16
37832;BME280;23671;38.090;-122.570;2022-10-19T12:19:48;101690.06;;;14.93;55.08
37832;BME280;23671;38.090;-122.570;2022-10-19T12:22:22;101696.72;;;14.87;55.21
37832;BME280;23671;38.090;-122.570;2022-10-19T12:24:53;101695.44;;;14.82;55.22
37832;BME280;23671;38.090;-122.570;2022-10-19T12:27:32;101703.03;;;14.86;55.00
37832;BME280;23671;38.090;-122.570;2022-10-19T12:30:13;101701.72;;;14.81;55.40
37832;BME280;23671;38.090;-122.570;2022-10-19T12:43:52;101702.84;;;14.67;55.57
37832;BME280;23671;38.090;-122.570;2022-10-19T12:46:38;101708.97;;;14.68;55.51
37832;BME280;23671;38.090;-122.570;2022-10-19T12:51:54;101708.25;;;14.66;55.43
37832;BME280;23671;38.090;-122.570;2022-10-19T12:54:24;101711.03;;;14.64;55.56
37832;BME280;23671;38.090;-122.570;2022-10-19T12:56:53;101708.66;;;14.61;55.51
37832;BME280;23671;38.090;-122.570;2022-10-19T12:59:55;101705.63;;;14.54;55.66
37832;BME280;23671;38.090;-122.570;2022-10-19T13:02:35;101713.59;;;14.54;55.45
37832;BME280;23671;38.090;-122.570;2022-10-19T13:05:04;101707.69;;;14.51;55.68
37832;BME280;23671;38.090;-122.570;2022-10-19T13:07:33;101718.44;;;14.49;55.67
37832;BME280;23671;38.090;-122.570;2022-10-19T13:10:04;101711.31;;;14.50;55.52
37832;BME280;23671;38.090;-122.570;2022-10-19T13:12:43;101724.09;;;14.45;55.68
37832;BME280;23671;38.090;-122.570;2022-10-19T13:18:00;101708.66;;;14.39;55.88
37832;BME280;23671;38.090;-122.570;2022-10-19T13:25:31;101726.53;;;14.37;55.96
37832;BME280;23671;38.090;-122.570;2022-10-19T13:38:39;101728.31;;;14.25;56.16
37832;BME280;23671;38.090;-122.570;2022-10-19T13:41:10;101725.66;;;14.25;55.83
37832;BME280;23671;38.090;-122.570;2022-10-19T13:47:24;101742.44;;;14.26;55.52
37832;BME280;23671;38.090;-122.570;2022-10-19T14:04:16;101736.63;;;14.10;56.18
37832;BME280;23671;38.090;-122.570;2022-10-19T14:06:55;101741.84;;;14.11;55.75
37832;BME280;23671;38.090;-122.570;2022-10-19T14:12:21;101758.97;;;14.07;55.94
37832;BME280;23671;38.090;-122.570;2022-10-19T14:14:49;101761.63;;;14.07;55.74
37832;BME280;23671;38.090;-122.570;2022-10-19T14:17:23;101766.94;;;14.07;55.96
37832;BME280;23671;38.090;-122.570;2022-10-19T14:19:56;101756.66;;;14.14;55.78
37832;BME280;23671;38.090;-122.570;2022-10-19T14:22:29;101758.59;;;14.12;55.94
37832;BME280;23671;38.090;-122.570;2022-10-19T14:27:41;101764.38;;;14.06;55.53
37832;BME280;23671;38.090;-122.570;2022-10-19T14:32:48;101763.78;;;14.02;55.90
37832;BME280;23671;38.090;-122.570;2022-10-19T14:35:26;101773.31;;;14.05;55.67
37832;BME280;23671;38.090;-122.570;2022-10-19T14:37:54;101771.38;;;14.07;55.66
37832;BME280;23671;38.090;-122.570;2022-10-19T14:40:23;101774.28;;;14.04;55.43
37832;BME280;23671;38.090;-122.570;2022-10-19T14:42:50;101772.72;;;14.01;55.74
37832;BME280;23671;38.090;-122.570;2022-10-19T14:45:28;101771.97;;;13.99;55.97
37832;BME280;23671;38.090;-122.570;2022-10-19T14:50:39;101783.47;;;14.00;55.69
37832;BME280;23671;38.090;-122.570;2022-10-19T14:55:43;101793.72;;;14.04;55.30
37832;BME280;23671;38.090;-122.570;2022-10-19T14:58:16;101785.53;;;14.07;55.22
37832;BME280;23671;38.090;-122.570;2022-10-19T15:00:46;101796.63;;;14.01;55.56
37832;BME280;23671;38.090;-122.570;2022-10-19T15:03:25;101790.94;;;14.06;55.41
37832;BME280;23671;38.090;-122.570;2022-10-19T15:06:00;101799.63;;;14.08;55.58
37832;BME280;23671;38.090;-122.570;2022-10-19T15:08:41;101794.22;;;14.09;55.51
37832;BME280;23671;38.090;-122.570;2022-10-19T15:11:39;101798.81;;;14.07;55.45
37832;BME280;23671;38.090;-122.570;2022-10-19T15:16:50;101794.06;;;14.00;55.36
37832;BME280;23671;38.090;-122.570;2022-10-19T15:19:25;101796.63;;;14.01;55.31
37832;BME280;23671;38.090;-122.570;2022-10-19T15:30:30;101806.16;;;14.04;55.87
37832;BME280;23671;38.090;-122.570;2022-10-19T15:35:30;101812.16;;;14.06;55.50
37832;BME280;23671;38.090;-122.570;2022-10-19T15:38:26;101810.63;;;14.03;55.58